createdAt,value
2019-02-23T00:01:19.638Z,11.93
2019-02-23T00:03:53.037Z,13.13
2019-02-23T00:06:29.687Z,14.75
2019-02-23T00:08:56.452Z,14.23
2019-02-23T00:11:27.651Z,13.85
2019-02-23T00:13:59.367Z,11.38
2019-02-23T00:16:31.365Z,11.43
2019-02-23T00:19:02.543Z,14.33
2019-02-23T00:21:33.633Z,8.70
2019-02-23T00:24:03.761Z,15.65
2019-02-23T00:26:35.005Z,16.32
2019-02-23T00:29:05.619Z,14.38
2019-02-23T00:31:37.735Z,21.00
2019-02-23T00:34:07.900Z,21.80
2019-02-23T00:36:38.386Z,24.15
2019-02-23T00:39:10.247Z,23.02
2019-02-23T00:41:51.568Z,17.55
2019-02-23T00:44:21.995Z,20.12
2019-02-23T00:46:53.290Z,20.65
2019-02-23T00:49:35.574Z,14.90
2019-02-23T00:51:59.087Z,14.13
2019-02-23T00:54:31.350Z,15.15
2019-02-23T00:57:04.081Z,17.50
2019-02-23T00:59:36.802Z,18.27
2019-02-23T01:02:12.016Z,17.73
2019-02-23T01:04:45.126Z,19.30
2019-02-23T01:07:15.585Z,20.32
2019-02-23T01:09:46.778Z,16.77
2019-02-23T01:12:20.868Z,19.45
2019-02-23T01:14:55.135Z,17.30
2019-02-23T01:17:26.101Z,16.70
2019-02-23T01:19:58.771Z,13.55
2019-02-23T01:22:29.302Z,15.60
2019-02-23T01:25:00.795Z,14.25
2019-02-23T01:27:30.947Z,15.38
2019-02-23T01:30:02.084Z,13.45
2019-02-23T01:32:53.547Z,15.40
2019-02-23T01:35:23.654Z,17.77
2019-02-23T01:37:55.071Z,10.43
2019-02-23T01:40:28.161Z,13.10
2019-02-23T01:42:59.048Z,20.45
2019-02-23T01:45:30.680Z,14.38
2019-02-23T01:48:00.836Z,19.17
2019-02-23T01:50:35.291Z,15.43
2019-02-23T01:53:07.193Z,13.78
2019-02-23T01:55:40.399Z,15.45
2019-02-23T01:58:10.547Z,15.40
2019-02-23T02:00:42.033Z,15.10
2019-02-23T02:03:19.199Z,14.75
2019-02-23T02:05:49.733Z,12.82
2019-02-23T02:08:22.281Z,16.60
2019-02-23T02:10:55.627Z,19.45
2019-02-23T02:13:29.051Z,21.93
2019-02-23T02:16:01.200Z,19.10
2019-02-23T02:18:32.588Z,19.48
2019-02-23T02:21:06.361Z,27.87
2019-02-23T02:23:37.436Z,22.10
2019-02-23T02:26:07.577Z,21.82
2019-02-23T02:28:37.774Z,24.43
2019-02-23T02:31:08.218Z,24.25
2019-02-23T02:34:28.452Z,16.60
2019-02-23T02:36:58.628Z,17.65
2019-02-23T02:39:32.323Z,21.42
2019-02-23T02:42:02.809Z,18.32
2019-02-23T02:44:33.239Z,18.65
2019-02-23T02:47:04.124Z,16.73
2019-02-23T02:49:34.326Z,19.55
2019-02-23T02:52:04.601Z,16.80
2019-02-23T02:54:38.514Z,15.83
2019-02-23T02:57:12.748Z,20.08
2019-02-23T02:59:44.199Z,20.50
2019-02-23T03:02:16.457Z,18.48
2019-02-23T03:04:46.625Z,18.15
2019-02-23T03:07:17.519Z,15.55
2019-02-23T03:09:48.632Z,12.53
2019-02-23T03:12:20.709Z,21.52
2019-02-23T03:14:52.942Z,20.90
2019-02-23T03:17:24.955Z,20.62
2019-02-23T03:19:55.125Z,19.25
2019-02-23T03:22:25.271Z,23.32
2019-02-23T03:24:56.153Z,18.05
2019-02-23T03:27:26.768Z,14.45
2019-02-23T03:29:57.150Z,18.17
2019-02-23T03:32:27.343Z,20.02
2019-02-23T03:34:57.521Z,20.62
2019-02-23T03:37:31.646Z,21.02
2019-02-23T03:40:04.632Z,16.50
2019-02-23T03:42:35.890Z,17.45
2019-02-23T03:45:06.831Z,18.40
2019-02-23T03:47:37.033Z,17.45
2019-02-23T03:50:09.286Z,17.00
2019-02-23T03:52:42.810Z,14.93
2019-02-23T03:55:15.539Z,15.58
2019-02-23T03:57:50.367Z,18.05
2019-02-23T04:00:22.786Z,15.95
2019-02-23T04:02:54.746Z,17.77
2019-02-23T04:05:25.809Z,16.02
2019-02-23T04:07:55.966Z,16.50
2019-02-23T04:10:28.920Z,18.50
2019-02-23T04:12:59.039Z,16.97
2019-02-23T04:15:30.730Z,15.38
2019-02-23T04:18:13.510Z,19.75
2019-02-23T04:20:46.110Z,19.35
2019-02-23T04:23:22.859Z,15.65
2019-02-23T04:25:53.124Z,15.32
2019-02-23T04:28:25.367Z,16.90
2019-02-23T04:30:55.541Z,18.32
2019-02-23T04:33:25.656Z,17.00
2019-02-23T04:35:56.324Z,17.02
2019-02-23T04:38:27.914Z,18.17
2019-02-23T04:41:01.271Z,20.30
2019-02-23T04:43:32.764Z,15.70
2019-02-23T04:46:02.958Z,18.62
2019-02-23T04:48:33.100Z,20.17
2019-02-23T04:51:13.838Z,12.95
2019-02-23T04:53:37.401Z,17.23
2019-02-23T04:56:10.219Z,19.85
2019-02-23T04:58:42.332Z,14.20
2019-02-23T05:01:14.590Z,20.08
2019-02-23T05:03:47.313Z,18.00
2019-02-23T05:06:17.596Z,17.95
2019-02-23T05:08:49.212Z,15.68
2019-02-23T05:11:20.520Z,19.67
2019-02-23T05:13:51.782Z,19.75
2019-02-23T05:16:24.449Z,17.92
2019-02-23T05:18:58.729Z,19.48
2019-02-23T05:21:29.522Z,18.05
2019-02-23T05:24:00.015Z,20.05
2019-02-23T05:26:30.202Z,16.62
2019-02-23T05:29:02.704Z,20.10
2019-02-23T05:31:37.843Z,20.25
2019-02-23T05:34:09.430Z,17.85
2019-02-23T05:36:40.236Z,13.45
2019-02-23T05:39:17.675Z,17.85
2019-02-23T05:41:48.218Z,20.02
2019-02-23T05:44:20.133Z,17.57
2019-02-23T05:46:52.386Z,22.90
2019-02-23T05:49:22.998Z,19.57
2019-02-23T05:51:53.215Z,19.95
2019-02-23T05:54:25.123Z,20.02
2019-02-23T05:56:57.510Z,18.50
2019-02-23T05:59:27.979Z,23.98
2019-02-23T06:01:58.904Z,15.28
2019-02-23T06:04:29.843Z,20.30
2019-02-23T06:06:59.990Z,17.50
2019-02-23T06:09:34.580Z,16.57
2019-02-23T06:12:06.294Z,18.80
2019-02-23T06:14:38.233Z,60.12
2019-02-23T06:17:10.340Z,21.02
2019-02-23T06:20:38.457Z,17.95
2019-02-23T06:23:32.843Z,48.78
2019-02-23T06:26:29.725Z,33.30
2019-02-23T06:29:31.909Z,23.92
2019-02-23T06:32:47.877Z,26.27
2019-02-23T06:36:17.043Z,29.02
2019-02-23T06:38:49.448Z,29.60
2019-02-23T06:41:22.917Z,25.02
2019-02-23T06:43:56.172Z,19.15
2019-02-23T06:46:27.701Z,27.30
2019-02-23T06:48:59.132Z,22.00
2019-02-23T06:51:30.301Z,25.40
2019-02-23T06:54:05.320Z,22.32
2019-02-23T06:56:42.896Z,16.23
2019-02-23T06:59:14.746Z,19.52
2019-02-23T07:01:45.487Z,20.45
2019-02-23T07:04:16.267Z,22.93
2019-02-23T07:06:48.076Z,19.12
2019-02-23T07:09:22.367Z,21.82
2019-02-23T07:11:52.557Z,22.02
2019-02-23T07:14:22.839Z,21.40
2019-02-23T07:16:54.996Z,23.57
2019-02-23T07:19:25.229Z,28.70
2019-02-23T07:21:59.281Z,33.38
2019-02-23T07:24:30.168Z,30.00
2019-02-23T07:27:00.365Z,33.23
2019-02-23T07:29:30.519Z,21.20
2019-02-23T07:32:02.444Z,25.85
2019-02-23T07:34:32.605Z,38.48
2019-02-23T07:37:03.804Z,25.92
2019-02-23T07:39:35.826Z,32.75
2019-02-23T07:42:07.089Z,29.80
2019-02-23T07:44:43.907Z,34.20
2019-02-23T07:47:17.624Z,34.67
2019-02-23T07:49:48.221Z,38.25
2019-02-23T07:52:26.606Z,40.38
2019-02-23T07:54:56.195Z,44.42
2019-02-23T07:57:26.733Z,46.05
2019-02-23T07:59:56.868Z,51.42
2019-02-23T08:02:29.432Z,48.68
2019-02-23T08:04:59.539Z,41.77
2019-02-23T08:07:39.691Z,44.03
2019-02-23T08:10:09.617Z,39.53
2019-02-23T08:12:40.178Z,29.45
2019-02-23T08:15:12.536Z,35.78
2019-02-23T08:17:43.868Z,30.60
2019-02-23T08:20:14.618Z,32.42
2019-02-23T08:22:45.307Z,33.23
2019-02-23T08:25:15.526Z,30.57
2019-02-23T08:27:45.670Z,34.18
2019-02-23T08:30:18.117Z,33.73
2019-02-23T08:32:49.369Z,29.10
2019-02-23T08:35:24.576Z,29.72
2019-02-23T08:37:57.412Z,31.33
2019-02-23T08:40:27.891Z,34.45
2019-02-23T08:42:59.165Z,29.67
2019-02-23T08:45:29.291Z,29.45
2019-02-23T08:48:02.025Z,31.40
2019-02-23T08:50:32.152Z,35.03
2019-02-23T08:53:03.119Z,31.60
2019-02-23T08:55:33.779Z,23.80
2019-02-23T08:58:05.022Z,31.50
2019-02-23T09:00:35.632Z,31.65
2019-02-23T09:03:06.135Z,30.65
2019-02-23T09:05:36.301Z,26.80
2019-02-23T09:08:06.456Z,27.60
2019-02-23T09:10:37.421Z,29.95
2019-02-23T09:13:08.280Z,24.75
2019-02-23T09:15:38.400Z,24.27
2019-02-23T09:18:11.386Z,29.35
2019-02-23T09:20:41.593Z,25.85
2019-02-23T09:23:12.998Z,25.08
2019-02-23T09:25:45.972Z,23.07
2019-02-23T09:28:16.493Z,25.52
2019-02-23T09:30:46.634Z,21.77
2019-02-23T09:33:17.077Z,19.82
2019-02-23T09:35:47.227Z,25.15
2019-02-23T09:38:18.167Z,19.40
2019-02-23T09:40:49.414Z,22.90
2019-02-23T09:43:20.238Z,17.92
2019-02-23T09:45:50.959Z,24.95
2019-02-23T09:48:21.426Z,23.25
2019-02-23T09:50:53.931Z,22.58
2019-02-23T09:56:05.905Z,20.57
2019-02-23T09:58:36.202Z,23.05
2019-02-23T10:01:07.359Z,21.33
2019-02-23T10:03:37.985Z,20.05
2019-02-23T10:06:08.220Z,23.20
2019-02-23T10:08:38.422Z,17.62
2019-02-23T10:11:09.254Z,14.98
2019-02-23T10:13:43.302Z,17.73
2019-02-23T10:16:13.772Z,16.10
2019-02-23T10:18:46.028Z,15.28
2019-02-23T10:21:16.149Z,15.00
2019-02-23T10:23:47.469Z,13.53
2019-02-23T10:26:17.604Z,14.98
2019-02-23T10:28:49.355Z,16.90
2019-02-23T10:31:20.181Z,15.25
2019-02-23T10:33:50.351Z,17.75
2019-02-23T10:36:20.459Z,13.28
2019-02-23T10:38:53.355Z,14.60
2019-02-23T10:41:25.230Z,14.55
2019-02-23T10:43:55.435Z,13.30
2019-02-23T10:46:30.232Z,14.83
2019-02-23T10:49:05.034Z,12.60
2019-02-23T10:51:36.511Z,12.37
2019-02-23T10:54:09.930Z,11.80
2019-02-23T10:56:40.155Z,9.85
2019-02-23T10:59:10.315Z,11.83
2019-02-23T11:01:45.237Z,8.88
2019-02-23T11:04:17.034Z,11.08
2019-02-23T11:06:47.402Z,10.13
2019-02-23T11:09:27.468Z,10.72
2019-02-23T11:12:00.019Z,7.97
2019-02-23T11:14:30.411Z,9.45
2019-02-23T11:17:05.500Z,9.25
2019-02-23T11:19:43.734Z,7.55
2019-02-23T11:22:15.608Z,10.93
2019-02-23T11:24:48.154Z,8.63
2019-02-23T11:27:18.556Z,8.73
2019-02-23T11:29:51.106Z,9.73
2019-02-23T11:32:22.759Z,7.83
2019-02-23T11:34:54.852Z,9.45
2019-02-23T11:37:25.342Z,9.60
2019-02-23T11:39:55.470Z,9.48
2019-02-23T11:42:25.624Z,7.30
2019-02-23T11:44:57.159Z,7.42
2019-02-23T11:47:28.186Z,8.28
2019-02-23T11:49:58.402Z,11.18
2019-02-23T11:52:28.546Z,9.80
2019-02-23T11:55:01.203Z,7.42
2019-02-23T11:57:32.868Z,9.03
2019-02-23T12:00:12.348Z,8.38
2019-02-23T12:02:52.154Z,9.55
2019-02-23T12:05:15.140Z,7.75
2019-02-23T12:07:45.298Z,7.55
2019-02-23T12:10:15.832Z,7.75
2019-02-23T12:12:46.446Z,7.35
2019-02-23T12:15:16.689Z,7.25
2019-02-23T12:17:50.859Z,7.22
2019-02-23T12:20:22.744Z,7.90
2019-02-23T12:22:55.755Z,7.58
2019-02-23T12:25:27.247Z,7.75
2019-02-23T12:27:57.437Z,5.78
2019-02-23T12:30:28.580Z,6.53
2019-02-23T12:33:00.419Z,5.67
2019-02-23T12:35:31.033Z,6.78
2019-02-23T12:38:02.321Z,7.42
2019-02-23T12:40:33.257Z,10.05
2019-02-23T12:43:03.556Z,6.25
2019-02-23T12:45:33.841Z,6.17
2019-02-23T12:48:05.967Z,8.78
2019-02-23T12:50:39.298Z,6.80
2019-02-23T12:53:10.181Z,7.90
2019-02-23T12:55:40.359Z,6.03
2019-02-23T12:58:10.552Z,6.35
2019-02-23T13:00:42.762Z,5.90
2019-02-23T13:03:12.992Z,5.58
2019-02-23T13:05:45.065Z,7.95
2019-02-23T13:08:16.754Z,5.67
2019-02-23T13:10:49.624Z,5.33
2019-02-23T13:14:18.663Z,5.75
2019-02-23T13:16:58.816Z,6.22
2019-02-23T13:20:01.765Z,6.10
2019-02-23T13:23:06.893Z,5.80
2019-02-23T13:26:07.822Z,4.60
2019-02-23T13:29:15.502Z,6.20
2019-02-23T13:32:29.977Z,6.20
2019-02-23T13:35:46.300Z,6.28
2019-02-23T13:38:29.711Z,4.67
2019-02-23T13:41:15.346Z,4.55
2019-02-23T13:44:09.491Z,4.70
2019-02-23T13:47:09.633Z,4.80
2019-02-23T13:50:06.981Z,4.85
2019-02-23T13:53:11.776Z,6.80
2019-02-23T13:56:17.957Z,5.80
2019-02-23T13:58:56.553Z,5.28
2019-02-23T14:02:09.139Z,5.05
2019-02-23T14:05:13.399Z,5.05
2019-02-23T14:08:27.508Z,5.65
2019-02-23T14:11:27.318Z,7.65
2019-02-23T14:14:41.291Z,5.75
2019-02-23T14:17:52.292Z,4.92
2019-02-23T14:21:14.396Z,5.80
2019-02-23T14:24:17.684Z,7.80
2019-02-23T14:27:13.368Z,5.50
2019-02-23T14:30:40.209Z,5.95
2019-02-23T14:34:00.465Z,6.97
2019-02-23T14:37:00.715Z,8.05
2019-02-23T14:40:24.247Z,7.85
2019-02-23T14:43:19.023Z,7.60
2019-02-23T14:46:40.796Z,6.70
2019-02-23T14:50:07.126Z,6.00
2019-02-23T14:53:05.359Z,8.13
2019-02-23T14:56:30.207Z,5.55
2019-02-23T14:59:40.106Z,5.25
2019-02-23T15:02:34.957Z,7.72
2019-02-23T15:05:35.031Z,5.80
2019-02-23T15:08:35.886Z,5.58
2019-02-23T15:12:11.720Z,4.67
2019-02-23T15:15:28.952Z,5.85
2019-02-23T15:18:48.921Z,4.67
2019-02-23T15:22:04.999Z,4.55
2019-02-23T15:24:57.987Z,5.90
2019-02-23T15:28:06.200Z,5.53
2019-02-23T15:31:33.696Z,8.18
2019-02-23T15:34:26.537Z,7.92
2019-02-23T15:37:15.007Z,4.50
2019-02-23T15:40:14.402Z,6.12
2019-02-23T15:43:16.675Z,3.60
2019-02-23T15:45:59.673Z,4.50
2019-02-23T15:49:06.478Z,5.40
2019-02-23T15:51:41.452Z,6.22
2019-02-23T15:54:13.388Z,3.95
2019-02-23T15:56:46.817Z,5.00
2019-02-23T15:59:19.891Z,4.50
2019-02-23T16:01:50.452Z,5.92
2019-02-23T16:04:20.678Z,6.33
2019-02-23T16:06:52.295Z,4.47
2019-02-23T16:09:23.829Z,4.55
2019-02-23T16:11:53.979Z,4.90
2019-02-23T16:14:24.408Z,3.27
2019-02-23T16:16:55.810Z,5.12
2019-02-23T16:19:27.227Z,6.05
2019-02-23T16:21:59.182Z,9.93
2019-02-23T16:24:29.429Z,5.03
2019-02-23T16:27:02.275Z,14.38
2019-02-23T16:29:33.144Z,5.60
2019-02-23T16:32:06.466Z,7.40
2019-02-23T16:34:38.432Z,4.67
2019-02-23T16:37:08.583Z,4.37
2019-02-23T16:39:40.561Z,3.05
2019-02-23T16:42:11.485Z,4.35
2019-02-23T16:44:43.055Z,3.40
2019-02-23T16:47:15.498Z,5.50
2019-02-23T16:49:51.653Z,6.00
2019-02-23T16:52:41.746Z,4.35
2019-02-23T16:55:13.275Z,4.67
2019-02-23T16:57:44.950Z,6.95
2019-02-23T17:00:16.161Z,7.50
2019-02-23T17:02:47.387Z,3.90
2019-02-23T17:05:18.563Z,3.60
2019-02-23T17:07:48.812Z,5.22
2019-02-23T17:10:19.311Z,2.47
2019-02-23T17:12:50.263Z,4.33
2019-02-23T17:15:20.658Z,3.27
2019-02-23T17:17:52.575Z,5.83
2019-02-23T17:20:25.607Z,4.75
2019-02-23T17:22:55.582Z,2.83
2019-02-23T17:25:27.251Z,4.30
2019-02-23T17:27:57.566Z,5.00
2019-02-23T17:30:27.740Z,2.75
2019-02-23T17:32:57.867Z,2.87
2019-02-23T17:35:28.385Z,5.90
2019-02-23T17:37:58.613Z,5.50
2019-02-23T17:40:28.771Z,5.65
2019-02-23T17:42:58.897Z,5.37
2019-02-23T17:48:53.291Z,3.90
2019-02-23T17:54:21.783Z,4.40
2019-02-23T17:56:56.298Z,5.55
2019-02-23T17:59:27.274Z,5.03
2019-02-23T18:01:59.660Z,6.10
2019-02-23T18:04:34.108Z,6.42
2019-02-23T18:07:07.634Z,5.83
2019-02-23T18:09:42.791Z,6.40
2019-02-23T18:12:27.054Z,4.70
2019-02-23T18:14:59.434Z,5.80
2019-02-23T18:17:34.737Z,3.90
2019-02-23T18:20:07.084Z,6.00
2019-02-23T18:22:38.697Z,4.80
2019-02-23T18:25:11.651Z,5.12
2019-02-23T18:27:42.574Z,4.42
2019-02-23T18:30:14.166Z,4.60
2019-02-23T18:32:44.704Z,5.35
2019-02-23T18:35:15.331Z,3.87
2019-02-23T18:37:45.966Z,2.85
2019-02-23T18:40:16.549Z,4.17
2019-02-23T18:42:46.762Z,4.03
2019-02-23T18:45:19.336Z,5.72
2019-02-23T18:47:50.506Z,4.08
2019-02-23T18:50:21.812Z,3.45
2019-02-23T18:52:53.269Z,3.33
2019-02-23T18:55:25.624Z,4.05
2019-02-23T18:57:56.046Z,4.67
2019-02-23T19:00:26.271Z,6.40
2019-02-23T19:02:56.652Z,4.58
2019-02-23T19:05:29.919Z,4.20
2019-02-23T19:08:00.225Z,4.80
2019-02-23T19:10:30.946Z,6.00
2019-02-23T19:13:01.211Z,4.40
2019-02-23T19:15:31.543Z,3.80
2019-02-23T19:18:01.822Z,4.20
2019-02-23T19:20:32.100Z,4.75
2019-02-23T19:23:03.043Z,6.17
2019-02-23T19:25:33.229Z,6.60
2019-02-23T19:28:03.499Z,5.78
2019-02-23T19:30:34.226Z,4.12
2019-02-23T19:33:04.404Z,3.85
2019-02-23T19:35:34.759Z,5.95
2019-02-23T19:38:04.966Z,7.00
2019-02-23T19:40:35.470Z,5.22
2019-02-23T19:43:05.760Z,4.22
2019-02-23T19:45:35.940Z,6.62
2019-02-23T19:48:06.170Z,6.75
2019-02-23T19:50:40.410Z,5.62
2019-02-23T19:53:11.811Z,6.35
2019-02-23T19:55:42.995Z,3.80
2019-02-23T19:58:13.417Z,5.67
2019-02-23T20:00:43.843Z,3.52
2019-02-23T20:03:15.234Z,4.53
2019-02-23T20:05:45.471Z,4.97
2019-02-23T20:08:15.659Z,3.90
2019-02-23T20:10:45.962Z,4.90
2019-02-23T20:13:21.969Z,3.60
2019-02-23T20:15:53.365Z,5.03
2019-02-23T20:18:23.642Z,3.15
2019-02-23T20:20:53.840Z,3.67
2019-02-23T20:23:24.047Z,3.17
2019-02-23T20:25:58.619Z,3.30
2019-02-23T20:28:28.931Z,5.12
2019-02-23T20:30:59.243Z,5.05
2019-02-23T20:33:30.593Z,8.95
2019-02-23T20:36:02.493Z,6.00
2019-02-23T20:38:33.475Z,6.55
2019-02-23T20:41:04.925Z,6.35
2019-02-23T20:43:35.236Z,3.65
2019-02-23T20:46:05.836Z,5.30
2019-02-23T20:48:36.566Z,3.65
2019-02-23T20:51:06.869Z,3.37
2019-02-23T20:53:37.303Z,8.38
2019-02-23T20:56:09.222Z,4.00
2019-02-23T20:58:40.032Z,3.95
2019-02-23T21:01:10.368Z,4.80
2019-02-23T21:03:40.704Z,6.72
2019-02-23T21:06:12.253Z,4.00
2019-02-23T21:08:43.649Z,19.85
2019-02-23T21:11:14.057Z,17.35
2019-02-23T21:17:51.789Z,18.02
2019-02-23T21:20:22.069Z,7.80
2019-02-23T21:22:59.615Z,10.38
2019-02-23T21:25:34.657Z,7.33
2019-02-23T21:28:11.904Z,8.68
2019-02-23T21:30:49.549Z,10.80
2019-02-23T21:33:38.805Z,5.08
2019-02-23T21:36:12.480Z,4.47
2019-02-23T21:38:42.702Z,4.87
2019-02-23T21:41:16.110Z,6.58
2019-02-23T21:43:48.083Z,5.97
2019-02-23T21:46:19.505Z,3.52
2019-02-23T21:48:52.451Z,5.58
2019-02-23T21:51:22.629Z,9.00
2019-02-23T21:53:55.670Z,8.40
2019-02-23T21:56:31.971Z,5.37
2019-02-23T21:59:02.259Z,5.72
2019-02-23T22:01:32.786Z,7.03
2019-02-23T22:04:04.675Z,5.42
2019-02-23T22:06:42.669Z,9.25
2019-02-23T22:09:21.253Z,4.75
2019-02-23T22:11:59.211Z,6.22
2019-02-23T22:14:30.186Z,6.20
2019-02-23T22:17:04.782Z,8.88
2019-02-23T22:19:44.392Z,3.92
2019-02-23T22:22:18.992Z,5.25
2019-02-23T22:24:49.998Z,4.67
2019-02-23T22:27:33.923Z,4.35
2019-02-23T22:30:08.621Z,5.75
2019-02-23T22:32:41.513Z,5.62
2019-02-23T22:35:14.144Z,6.00
2019-02-23T22:37:46.461Z,6.25
2019-02-23T22:40:21.064Z,6.20
2019-02-23T22:43:03.713Z,5.78
2019-02-23T22:45:47.047Z,7.12
2019-02-23T22:48:18.484Z,6.65
2019-02-23T22:50:59.066Z,6.30
2019-02-23T22:53:35.416Z,6.03
2019-02-23T22:56:10.245Z,12.18
2019-02-23T22:58:43.408Z,7.97
2019-02-23T23:01:21.905Z,5.25
2019-02-23T23:03:59.713Z,5.30
2019-02-23T23:06:31.592Z,4.83
2019-02-23T23:09:15.000Z,4.80
2019-02-23T23:11:52.158Z,6.15
2019-02-23T23:14:22.971Z,5.67
2019-02-23T23:16:54.059Z,6.28
2019-02-23T23:19:29.050Z,4.17
2019-02-23T23:22:04.929Z,5.45
2019-02-23T23:24:38.461Z,4.95
2019-02-23T23:27:12.950Z,6.58
2019-02-23T23:29:43.457Z,5.50
2019-02-23T23:32:18.285Z,5.62
2019-02-23T23:34:50.847Z,5.33
2019-02-23T23:37:41.628Z,5.15
2019-02-23T23:40:12.143Z,7.90
2019-02-23T23:45:19.084Z,6.62
2019-02-23T23:48:00.308Z,6.45
2019-02-23T23:50:30.747Z,6.22
2019-02-23T23:53:05.423Z,4.75
2019-02-23T23:55:35.964Z,5.00
2019-02-23T23:58:09.140Z,4.42
